createdAt,value
2022-08-16T00:00:04.319Z,100.00
2022-08-16T00:02:31.521Z,100.00
2022-08-16T00:04:59.854Z,100.00
2022-08-16T00:07:26.434Z,100.00
2022-08-16T00:09:55.742Z,100.00
2022-08-16T00:12:23.645Z,100.00
2022-08-16T00:14:49.988Z,100.00
2022-08-16T00:17:19.152Z,100.00
2022-08-16T00:19:45.762Z,100.00
2022-08-16T00:22:13.809Z,100.00
2022-08-16T00:24:41.723Z,100.00
2022-08-16T00:27:11.230Z,100.00
2022-08-16T00:29:37.454Z,100.00
2022-08-16T00:32:05.878Z,100.00
2022-08-16T00:34:43.228Z,100.00
2022-08-16T00:37:11.582Z,100.00
2022-08-16T00:39:38.883Z,100.00
2022-08-16T00:42:05.272Z,100.00
2022-08-16T00:44:36.535Z,100.00
2022-08-16T00:47:06.436Z,100.00
2022-08-16T00:49:44.522Z,100.00
2022-08-16T00:52:30.259Z,100.00
2022-08-16T00:54:57.078Z,100.00
2022-08-16T00:57:24.072Z,100.00
2022-08-16T00:59:59.005Z,100.00
2022-08-16T01:02:31.365Z,100.00
2022-08-16T01:05:09.526Z,100.00
2022-08-16T01:07:50.459Z,100.00
2022-08-16T01:10:18.651Z,100.00
2022-08-16T01:12:44.933Z,100.00
2022-08-16T01:15:11.176Z,100.00
2022-08-16T01:17:37.710Z,100.00
2022-08-16T01:20:03.926Z,100.00
2022-08-16T01:22:52.363Z,100.00
2022-08-16T01:25:18.922Z,100.00
2022-08-16T01:27:47.934Z,100.00
2022-08-16T01:30:19.941Z,100.00
2022-08-16T01:33:02.030Z,100.00
2022-08-16T01:35:29.288Z,100.00
2022-08-16T01:38:01.434Z,100.00
2022-08-16T01:40:28.006Z,100.00
2022-08-16T01:42:54.236Z,100.00
2022-08-16T01:45:21.820Z,100.00
2022-08-16T01:47:50.876Z,100.00
2022-08-16T01:50:43.388Z,100.00
2022-08-16T01:53:03.731Z,100.00
2022-08-16T01:55:35.750Z,100.00
2022-08-16T01:58:02.086Z,100.00
2022-08-16T02:00:29.803Z,100.00
2022-08-16T02:02:56.229Z,100.00
2022-08-16T02:05:23.547Z,100.00
2022-08-16T02:07:52.141Z,100.00
2022-08-16T02:10:19.763Z,100.00
2022-08-16T02:12:51.096Z,100.00
2022-08-16T02:15:24.904Z,100.00
2022-08-16T02:17:52.691Z,100.00
2022-08-16T02:20:19.105Z,100.00
2022-08-16T02:22:52.732Z,100.00
2022-08-16T02:25:21.645Z,100.00
2022-08-16T02:27:50.659Z,100.00
2022-08-16T02:30:35.972Z,100.00
2022-08-16T02:33:04.277Z,100.00
2022-08-16T02:35:30.779Z,100.00
2022-08-16T02:37:56.992Z,100.00
2022-08-16T02:40:28.136Z,100.00
2022-08-16T02:42:55.400Z,100.00
2022-08-16T02:45:24.886Z,100.00
2022-08-16T02:48:00.738Z,100.00
2022-08-16T02:51:03.088Z,100.00
2022-08-16T02:53:14.410Z,100.00
2022-08-16T02:55:44.588Z,100.00
2022-08-16T02:58:10.829Z,100.00
2022-08-16T03:00:39.862Z,100.00
2022-08-16T03:03:11.724Z,100.00
2022-08-16T03:05:41.479Z,100.00
2022-08-16T03:08:49.945Z,100.00
2022-08-16T03:10:54.976Z,100.00
2022-08-16T03:13:25.645Z,100.00
2022-08-16T03:15:52.771Z,100.00
2022-08-16T03:18:34.615Z,100.00
2022-08-16T03:21:05.256Z,100.00
2022-08-16T03:23:35.956Z,100.00
2022-08-16T03:26:02.347Z,100.00
2022-08-16T03:28:28.667Z,100.00
2022-08-16T03:30:56.545Z,100.00
2022-08-16T03:33:22.765Z,100.00
2022-08-16T03:35:49.625Z,100.00
2022-08-16T03:38:34.537Z,100.00
2022-08-16T03:41:01.351Z,100.00
2022-08-16T03:43:51.197Z,100.00
2022-08-16T03:46:44.894Z,100.00
2022-08-16T03:49:01.856Z,100.00
2022-08-16T03:51:28.206Z,100.00
2022-08-16T03:53:57.753Z,100.00
2022-08-16T03:56:27.650Z,100.00
2022-08-16T03:58:56.684Z,100.00
2022-08-16T04:01:24.427Z,100.00
2022-08-16T04:03:55.747Z,100.00
2022-08-16T04:06:21.975Z,100.00
2022-08-16T04:08:48.220Z,100.00
2022-08-16T04:11:16.577Z,100.00
2022-08-16T04:14:00.265Z,100.00
2022-08-16T04:16:29.639Z,100.00
2022-08-16T04:19:02.658Z,100.00
2022-08-16T04:21:30.528Z,100.00
2022-08-16T04:23:58.364Z,100.00
2022-08-16T04:26:24.595Z,100.00
2022-08-16T04:29:17.123Z,100.00
2022-08-16T04:31:43.814Z,100.00
2022-08-16T04:34:10.170Z,100.00
2022-08-16T04:36:39.237Z,100.00
2022-08-16T04:39:05.536Z,100.00
2022-08-16T04:41:37.371Z,100.00
2022-08-16T04:44:32.400Z,100.00
2022-08-16T04:47:00.911Z,100.00
2022-08-16T04:49:43.741Z,100.00
2022-08-16T04:52:33.719Z,100.00
2022-08-16T04:54:58.005Z,100.00
2022-08-16T04:57:24.458Z,100.00
2022-08-16T04:59:56.466Z,100.00
2022-08-16T05:02:55.620Z,100.00
2022-08-16T05:05:09.025Z,100.00
2022-08-16T05:07:58.412Z,100.00
2022-08-16T05:10:26.401Z,100.00
2022-08-16T05:12:52.669Z,100.00
2022-08-16T05:15:18.916Z,100.00
2022-08-16T05:17:46.665Z,100.00
2022-08-16T05:20:39.227Z,100.00
2022-08-16T05:22:59.257Z,100.00
2022-08-16T05:25:40.759Z,100.00
2022-08-16T05:28:07.648Z,100.00
2022-08-16T05:30:38.322Z,100.00
2022-08-16T05:33:04.701Z,100.00
2022-08-16T05:35:31.038Z,100.00
2022-08-16T05:37:58.921Z,100.00
2022-08-16T05:40:25.189Z,100.00
2022-08-16T05:42:52.839Z,100.00
2022-08-16T05:45:23.269Z,100.00
2022-08-16T05:47:59.603Z,100.00
2022-08-16T05:50:28.175Z,100.00
2022-08-16T05:53:00.531Z,100.00
2022-08-16T05:55:27.578Z,100.00
2022-08-16T05:57:56.263Z,100.00
2022-08-16T06:00:22.896Z,100.00
2022-08-16T06:02:49.428Z,100.00
2022-08-16T06:05:16.469Z,100.00
2022-08-16T06:07:42.807Z,100.00
2022-08-16T06:10:09.723Z,100.00
2022-08-16T06:12:36.207Z,100.00
2022-08-16T06:15:04.505Z,100.00
2022-08-16T06:17:42.508Z,100.00
2022-08-16T06:20:10.329Z,100.00
2022-08-16T06:22:39.525Z,100.00
2022-08-16T06:25:05.903Z,100.00
2022-08-16T06:27:39.734Z,100.00
2022-08-16T06:30:07.103Z,100.00
2022-08-16T06:32:38.343Z,100.00
2022-08-16T06:35:09.413Z,100.00
2022-08-16T06:37:38.421Z,100.00
2022-08-16T06:40:12.911Z,100.00
2022-08-16T06:42:47.922Z,100.00
2022-08-16T06:45:18.770Z,100.00
2022-08-16T06:47:54.365Z,100.00
2022-08-16T06:50:29.285Z,100.00
2022-08-16T06:52:59.845Z,100.00
2022-08-16T06:55:29.912Z,100.00
2022-08-16T06:58:00.808Z,100.00
2022-08-16T07:00:27.224Z,100.00
2022-08-16T07:02:54.000Z,100.00
2022-08-16T07:05:20.446Z,100.00
2022-08-16T07:07:54.120Z,100.00
2022-08-16T07:10:25.821Z,100.00
2022-08-16T07:13:03.836Z,100.00
2022-08-16T07:15:30.909Z,100.00
2022-08-16T07:17:57.167Z,100.00
2022-08-16T07:20:34.960Z,100.00
2022-08-16T07:23:02.645Z,100.00
2022-08-16T07:25:40.283Z,100.00
2022-08-16T07:28:06.952Z,100.00
2022-08-16T07:30:46.490Z,100.00
2022-08-16T07:33:15.942Z,100.00
2022-08-16T07:35:44.418Z,100.00
2022-08-16T07:38:19.489Z,100.00
2022-08-16T07:40:59.493Z,100.00
2022-08-16T07:43:28.952Z,100.00
2022-08-16T07:45:55.983Z,100.00
2022-08-16T07:48:22.369Z,100.00
2022-08-16T07:50:56.041Z,100.00
2022-08-16T07:53:24.973Z,100.00
2022-08-16T07:55:55.526Z,100.00
2022-08-16T07:58:35.235Z,100.00
2022-08-16T08:01:04.894Z,100.00
2022-08-16T08:03:39.949Z,100.00
2022-08-16T08:06:10.357Z,100.00
2022-08-16T08:08:49.192Z,100.00
2022-08-16T08:11:18.319Z,100.00
2022-08-16T08:13:44.930Z,100.00
2022-08-16T08:16:18.372Z,100.00
2022-08-16T08:18:50.125Z,100.00
2022-08-16T08:21:17.113Z,100.00
2022-08-16T08:23:44.908Z,100.00
2022-08-16T08:26:17.517Z,100.00
2022-08-16T08:28:44.240Z,100.00
2022-08-16T08:31:10.484Z,100.00
2022-08-16T08:33:46.686Z,100.00
2022-08-16T08:36:21.764Z,100.00
2022-08-16T08:38:48.609Z,100.00
2022-08-16T08:41:18.584Z,100.00
2022-08-16T08:43:46.057Z,100.00
2022-08-16T08:46:18.356Z,100.00
2022-08-16T08:48:59.124Z,100.00
2022-08-16T08:51:27.453Z,100.00
2022-08-16T08:53:57.939Z,100.00
2022-08-16T08:56:25.680Z,100.00
2022-08-16T08:58:53.997Z,100.00
2022-08-16T09:01:31.322Z,100.00
2022-08-16T09:04:02.464Z,100.00
2022-08-16T09:06:30.895Z,100.00
2022-08-16T09:08:57.171Z,100.00
2022-08-16T09:11:23.901Z,100.00
2022-08-16T09:14:07.146Z,100.00
2022-08-16T09:17:00.797Z,100.00
2022-08-16T09:19:19.656Z,100.00
2022-08-16T09:21:59.465Z,100.00
2022-08-16T09:24:46.855Z,100.00
2022-08-16T09:27:12.036Z,100.00
2022-08-16T09:29:45.307Z,100.00
2022-08-16T09:32:12.060Z,100.00
2022-08-16T09:34:38.308Z,100.00
2022-08-16T09:37:17.742Z,100.00
2022-08-16T09:39:50.327Z,100.00
2022-08-16T09:42:16.794Z,100.00
2022-08-16T09:45:10.684Z,100.00
2022-08-16T09:47:56.766Z,100.00
2022-08-16T09:50:22.931Z,100.00
2022-08-16T09:52:49.697Z,100.00
2022-08-16T09:55:16.048Z,100.00
2022-08-16T09:57:42.279Z,100.00
2022-08-16T10:00:44.258Z,100.00
2022-08-16T10:03:05.619Z,100.00
2022-08-16T10:05:35.250Z,100.00
2022-08-16T10:08:01.552Z,100.00
2022-08-16T10:10:47.760Z,100.00
2022-08-16T10:13:14.435Z,100.00
2022-08-16T10:15:42.719Z,100.00
2022-08-16T10:19:01.958Z,100.00
2022-08-16T10:21:00.571Z,100.00
2022-08-16T10:23:28.730Z,100.00
2022-08-16T10:27:16.551Z,100.00
2022-08-16T10:28:42.240Z,100.00
2022-08-16T10:31:08.566Z,100.00
2022-08-16T10:33:40.206Z,100.00
2022-08-16T10:36:07.529Z,100.00
2022-08-16T10:38:36.716Z,100.00
2022-08-16T10:41:03.497Z,100.00
2022-08-16T10:43:31.283Z,100.00
2022-08-16T10:46:00.918Z,100.00
2022-08-16T10:48:28.777Z,100.00
2022-08-16T10:50:55.270Z,100.00
2022-08-16T10:53:21.832Z,94.52
2022-08-16T10:55:48.157Z,94.04
2022-08-16T10:58:34.406Z,95.86
2022-08-16T11:01:25.053Z,97.49
2022-08-16T11:03:47.747Z,99.85
2022-08-16T11:06:19.168Z,100.00
2022-08-16T11:09:21.068Z,98.56
2022-08-16T11:12:13.208Z,96.28
2022-08-16T11:14:25.351Z,98.13
2022-08-16T11:17:10.496Z,100.00
2022-08-16T11:20:00.488Z,100.00
2022-08-16T11:22:46.911Z,98.97
2022-08-16T11:25:16.251Z,97.35
2022-08-16T11:27:56.162Z,95.35
2022-08-16T11:30:24.225Z,99.56
2022-08-16T11:33:04.044Z,97.45
2022-08-16T11:36:22.546Z,88.72
2022-08-16T11:38:46.678Z,89.93
2022-08-16T11:41:03.087Z,84.72
2022-08-16T11:43:29.316Z,86.56
2022-08-16T11:45:56.705Z,88.02
2022-08-16T11:48:23.028Z,86.13
2022-08-16T11:50:49.241Z,90.40
2022-08-16T11:53:15.465Z,85.20
2022-08-16T11:55:44.005Z,88.19
2022-08-16T11:58:11.100Z,81.65
2022-08-16T12:00:51.433Z,83.85
2022-08-16T12:03:18.288Z,84.26
2022-08-16T12:05:44.496Z,82.59
2022-08-16T12:08:10.731Z,82.90
2022-08-16T12:10:38.803Z,76.50
2022-08-16T12:13:05.025Z,75.76
2022-08-16T12:15:31.271Z,79.27
2022-08-16T12:18:00.810Z,76.01
2022-08-16T12:20:27.533Z,80.12
2022-08-16T12:22:56.016Z,81.04
2022-08-16T12:25:22.466Z,78.18
2022-08-16T12:27:49.877Z,78.59
2022-08-16T12:30:21.745Z,77.26
2022-08-16T12:32:57.889Z,74.27
2022-08-16T12:35:24.744Z,75.50
2022-08-16T12:37:55.463Z,72.25
2022-08-16T12:40:24.955Z,70.29
2022-08-16T12:42:59.004Z,72.27
2022-08-16T12:45:25.548Z,74.66
2022-08-16T12:47:55.116Z,77.21
2022-08-16T12:50:32.960Z,74.93
2022-08-16T12:52:59.712Z,75.83
2022-08-16T12:55:33.509Z,75.55
2022-08-16T12:58:14.048Z,65.06
2022-08-16T13:00:54.170Z,63.58
2022-08-16T13:03:21.592Z,62.54
2022-08-16T13:05:55.401Z,63.58
2022-08-16T13:08:22.107Z,67.77
2022-08-16T13:10:53.832Z,70.80
2022-08-16T13:13:20.066Z,70.95
2022-08-16T13:15:55.792Z,70.90
2022-08-16T13:18:33.441Z,71.66
2022-08-16T13:21:01.122Z,72.70
2022-08-16T13:23:27.403Z,70.76
2022-08-16T13:25:54.972Z,68.60
2022-08-16T13:28:21.507Z,71.07
2022-08-16T13:30:47.916Z,68.53
2022-08-16T13:33:17.567Z,62.57
2022-08-16T13:35:45.365Z,64.82
2022-08-16T13:38:24.432Z,59.18
2022-08-16T13:40:51.739Z,53.93
2022-08-16T13:43:17.973Z,52.90
2022-08-16T13:45:44.827Z,52.90
2022-08-16T13:48:11.458Z,53.73
2022-08-16T13:50:51.645Z,54.41
2022-08-16T13:53:18.428Z,53.04
2022-08-16T13:55:44.675Z,47.42
2022-08-16T13:58:37.561Z,48.56
2022-08-16T14:01:10.255Z,46.09
2022-08-16T14:03:36.590Z,47.53
2022-08-16T14:06:03.349Z,46.11
2022-08-16T14:08:29.689Z,46.10
2022-08-16T14:10:55.924Z,45.15
2022-08-16T14:13:22.160Z,45.26
2022-08-16T14:15:48.403Z,46.64
2022-08-16T14:18:19.844Z,45.91
2022-08-16T14:20:48.950Z,46.07
2022-08-16T14:23:17.520Z,47.86
2022-08-16T14:25:53.895Z,48.84
2022-08-16T14:28:20.681Z,51.38
2022-08-16T14:30:49.943Z,51.39
2022-08-16T14:33:17.687Z,53.17
2022-08-16T14:35:48.798Z,53.22
2022-08-16T14:38:18.578Z,53.20
2022-08-16T14:40:47.122Z,52.42
2022-08-16T14:43:18.989Z,53.52
2022-08-16T14:45:46.036Z,53.60
2022-08-16T14:48:20.265Z,54.40
2022-08-16T14:50:49.368Z,53.69
2022-08-16T14:53:15.725Z,53.07
2022-08-16T14:55:43.440Z,52.78
2022-08-16T14:58:10.491Z,51.59
2022-08-16T15:00:45.987Z,48.38
2022-08-16T15:03:12.270Z,49.38
2022-08-16T15:05:38.500Z,48.92
2022-08-16T15:08:05.242Z,48.39
2022-08-16T15:10:32.089Z,47.94
2022-08-16T15:12:58.752Z,47.09
2022-08-16T15:15:24.970Z,46.31
2022-08-16T15:17:56.625Z,47.90
2022-08-16T15:20:23.467Z,47.65
2022-08-16T15:22:52.648Z,48.89
2022-08-16T15:25:18.876Z,52.37
2022-08-16T15:27:45.163Z,52.60
2022-08-16T15:30:56.546Z,52.96
2022-08-16T15:33:07.326Z,49.17
2022-08-16T15:35:36.297Z,49.14
2022-08-16T15:38:08.985Z,47.38
2022-08-16T15:40:35.855Z,46.32
2022-08-16T15:43:02.116Z,46.43
2022-08-16T15:45:28.928Z,46.72
2022-08-16T15:47:56.017Z,45.47
2022-08-16T15:50:23.162Z,45.12
2022-08-16T15:52:49.499Z,45.63
2022-08-16T15:55:31.089Z,45.08
2022-08-16T15:58:01.705Z,44.63
2022-08-16T16:00:47.939Z,45.51
2022-08-16T16:03:14.220Z,43.38
2022-08-16T16:05:40.425Z,43.87
2022-08-16T16:08:12.323Z,43.02
2022-08-16T16:10:39.856Z,43.35
2022-08-16T16:13:06.126Z,43.27
2022-08-16T16:15:35.387Z,43.89
2022-08-16T16:18:05.400Z,43.58
2022-08-16T16:20:35.963Z,43.01
2022-08-16T16:23:10.055Z,43.17
2022-08-16T16:25:36.967Z,43.56
2022-08-16T16:28:03.225Z,44.18
2022-08-16T16:30:44.722Z,43.56
2022-08-16T16:33:11.669Z,43.82
2022-08-16T16:35:41.914Z,43.65
2022-08-16T16:38:13.241Z,43.94
2022-08-16T16:40:46.601Z,44.62
2022-08-16T16:43:20.649Z,44.10
2022-08-16T16:45:51.881Z,43.47
2022-08-16T16:48:18.124Z,43.26
2022-08-16T16:50:45.286Z,44.36
2022-08-16T16:53:18.006Z,44.32
2022-08-16T16:55:52.163Z,45.42
2022-08-16T16:58:28.971Z,45.66
2022-08-16T17:01:02.848Z,45.81
2022-08-16T17:03:29.957Z,45.99
2022-08-16T17:06:02.798Z,45.01
2022-08-16T17:08:35.807Z,45.18
2022-08-16T17:11:02.037Z,44.71
2022-08-16T17:13:28.500Z,44.88
2022-08-16T17:15:54.802Z,45.14
2022-08-16T17:19:16.173Z,45.31
2022-08-16T17:21:07.336Z,45.33
2022-08-16T17:23:59.090Z,45.62
2022-08-16T17:26:19.931Z,45.54
2022-08-16T17:28:57.964Z,45.55
2022-08-16T17:31:38.235Z,46.21
2022-08-16T17:34:30.789Z,46.20
2022-08-16T17:36:54.270Z,46.17
2022-08-16T17:39:20.915Z,47.00
2022-08-16T17:41:49.912Z,47.39
2022-08-16T17:44:16.118Z,47.64
2022-08-16T17:46:52.210Z,47.18
2022-08-16T17:49:19.104Z,48.01
2022-08-16T17:51:45.410Z,48.60
2022-08-16T17:54:20.412Z,49.11
2022-08-16T17:56:56.749Z,50.41
2022-08-16T17:59:22.969Z,50.93
2022-08-16T18:01:49.228Z,51.74
2022-08-16T18:04:48.665Z,52.16
2022-08-16T18:07:01.744Z,53.42
2022-08-16T18:09:28.014Z,53.58
2022-08-16T18:11:56.959Z,54.89
2022-08-16T18:14:51.198Z,57.03
2022-08-16T18:17:09.442Z,57.96
2022-08-16T18:19:35.832Z,59.72
2022-08-16T18:22:03.167Z,58.72
2022-08-16T18:24:29.450Z,59.23
2022-08-16T18:26:55.762Z,59.50
2022-08-16T18:29:22.030Z,60.80
2022-08-16T18:31:48.282Z,61.05
2022-08-16T18:34:14.493Z,62.14
2022-08-16T18:36:40.722Z,63.57
2022-08-16T18:39:07.037Z,64.81
2022-08-16T18:41:33.398Z,65.32
2022-08-16T18:44:24.933Z,65.67
2022-08-16T18:46:45.917Z,68.64
2022-08-16T18:49:18.196Z,70.08
2022-08-16T18:51:44.531Z,68.96
2022-08-16T18:54:10.741Z,68.80
2022-08-16T18:56:54.346Z,68.13
2022-08-16T18:59:23.247Z,71.22
2022-08-16T19:01:49.719Z,77.27
2022-08-16T19:04:50.601Z,77.41
2022-08-16T19:07:02.300Z,80.25
2022-08-16T19:09:28.567Z,89.34
2022-08-16T19:11:54.871Z,93.13
2022-08-16T19:14:21.108Z,94.18
2022-08-16T19:16:47.375Z,93.11
2022-08-16T19:19:13.600Z,95.43
2022-08-16T19:21:39.825Z,98.77
2022-08-16T19:24:06.098Z,97.70
2022-08-16T19:26:43.806Z,97.64
2022-08-16T19:29:11.871Z,100.00
2022-08-16T19:31:39.868Z,100.00
2022-08-16T19:34:06.087Z,100.00
2022-08-16T19:36:35.104Z,100.00
2022-08-16T19:39:04.754Z,100.00
2022-08-16T19:41:31.765Z,100.00
2022-08-16T19:43:58.023Z,100.00
2022-08-16T19:46:24.256Z,100.00
2022-08-16T19:48:50.500Z,100.00
2022-08-16T19:51:16.742Z,100.00
2022-08-16T19:53:42.988Z,100.00
2022-08-16T19:56:09.265Z,100.00
2022-08-16T19:58:35.506Z,100.00
2022-08-16T20:01:01.773Z,100.00
2022-08-16T20:03:28.062Z,100.00
2022-08-16T20:05:54.436Z,100.00
2022-08-16T20:08:20.676Z,100.00
2022-08-16T20:10:46.918Z,100.00
2022-08-16T20:13:13.140Z,100.00
2022-08-16T20:15:40.922Z,100.00
2022-08-16T20:18:17.226Z,100.00
2022-08-16T20:20:51.506Z,100.00
2022-08-16T20:23:24.369Z,100.00
2022-08-16T20:25:51.500Z,100.00
2022-08-16T20:28:39.507Z,100.00
2022-08-16T20:31:04.149Z,100.00
2022-08-16T20:33:30.367Z,100.00
2022-08-16T20:35:56.663Z,100.00
2022-08-16T20:38:22.900Z,100.00
2022-08-16T20:40:49.213Z,100.00
2022-08-16T20:43:15.476Z,100.00
2022-08-16T20:45:41.688Z,100.00
2022-08-16T20:48:07.924Z,100.00
2022-08-16T20:50:34.299Z,100.00
2022-08-16T20:53:00.542Z,100.00
2022-08-16T20:55:26.775Z,100.00
2022-08-16T20:57:55.129Z,100.00
2022-08-16T21:00:21.398Z,100.00
2022-08-16T21:02:47.640Z,100.00
2022-08-16T21:05:13.892Z,100.00
2022-08-16T21:07:40.403Z,100.00
2022-08-16T21:10:06.672Z,100.00
2022-08-16T21:12:34.780Z,100.00
2022-08-16T21:15:03.939Z,100.00
2022-08-16T21:17:30.210Z,100.00
2022-08-16T21:19:56.440Z,100.00
2022-08-16T21:22:22.680Z,100.00
2022-08-16T21:24:48.907Z,100.00
2022-08-16T21:27:20.245Z,100.00
2022-08-16T21:29:47.776Z,100.00
2022-08-16T21:32:14.772Z,100.00
2022-08-16T21:34:41.014Z,100.00
2022-08-16T21:37:07.263Z,100.00
2022-08-16T21:39:33.660Z,100.00
2022-08-16T21:41:59.964Z,100.00
2022-08-16T21:44:34.356Z,100.00
2022-08-16T21:47:05.101Z,100.00
2022-08-16T21:49:31.351Z,100.00
2022-08-16T21:51:57.595Z,100.00
2022-08-16T21:54:23.834Z,100.00
2022-08-16T21:56:50.066Z,100.00
2022-08-16T21:59:16.340Z,100.00
2022-08-16T22:01:42.717Z,100.00
2022-08-16T22:04:37.729Z,100.00
2022-08-16T22:06:55.264Z,100.00
2022-08-16T22:09:21.491Z,100.00
2022-08-16T22:11:47.760Z,100.00
2022-08-16T22:14:14.013Z,100.00
2022-08-16T22:16:40.284Z,100.00
2022-08-16T22:19:06.506Z,100.00
2022-08-16T22:21:32.741Z,100.00
2022-08-16T22:23:59.067Z,100.00
2022-08-16T22:26:30.319Z,100.00
2022-08-16T22:28:57.348Z,100.00
2022-08-16T22:31:23.655Z,100.00
2022-08-16T22:33:50.361Z,100.00
2022-08-16T22:36:16.606Z,100.00
2022-08-16T22:38:53.756Z,100.00
2022-08-16T22:41:23.091Z,100.00
2022-08-16T22:43:49.325Z,100.00
2022-08-16T22:46:15.569Z,100.00
2022-08-16T22:48:42.580Z,100.00
2022-08-16T22:51:09.088Z,100.00
2022-08-16T22:53:35.305Z,100.00
2022-08-16T22:56:03.774Z,100.00
2022-08-16T22:58:36.563Z,100.00
2022-08-16T23:01:03.512Z,100.00
2022-08-16T23:03:30.249Z,100.00
2022-08-16T23:05:56.496Z,100.00
2022-08-16T23:08:38.505Z,100.00
2022-08-16T23:11:06.043Z,100.00
2022-08-16T23:13:32.353Z,100.00
2022-08-16T23:15:58.593Z,100.00
2022-08-16T23:18:26.931Z,100.00
2022-08-16T23:20:53.350Z,100.00
2022-08-16T23:23:21.848Z,100.00
2022-08-16T23:25:48.368Z,100.00
2022-08-16T23:28:14.628Z,100.00
2022-08-16T23:30:40.892Z,100.00
2022-08-16T23:33:07.182Z,100.00
2022-08-16T23:35:45.282Z,100.00
2022-08-16T23:38:37.977Z,100.00
2022-08-16T23:40:58.430Z,100.00
2022-08-16T23:43:24.734Z,100.00
2022-08-16T23:45:50.980Z,100.00
2022-08-16T23:48:17.190Z,100.00
2022-08-16T23:50:43.432Z,100.00
2022-08-16T23:53:09.724Z,100.00
2022-08-16T23:55:35.976Z,100.00
2022-08-16T23:58:02.353Z,100.00
